sensor_id;sensor_type;location;lat;lon;timestamp;temperature;humidity
12907;DHT22;6521;50.498;8.474;2023-02-15T00:02:19;1.16;93.09
12907;DHT22;6521;50.498;8.474;2023-02-15T00:04:50;1.16;93.08
12907;DHT22;6521;50.498;8.474;2023-02-15T00:07:21;1.08;92.86
12907;DHT22;6521;50.498;8.474;2023-02-15T00:09:52;1.07;92.85
12907;DHT22;6521;50.498;8.474;2023-02-15T00:12:23;1.04;93.05
12907;DHT22;6521;50.498;8.474;2023-02-15T00:14:54;0.97;92.77
12907;DHT22;6521;50.498;8.474;2023-02-15T00:17:28;0.94;92.97
12907;DHT22;6521;50.498;8.474;2023-02-15T00:19:59;0.97;92.99
12907;DHT22;6521;50.498;8.474;2023-02-15T00:22:29;0.93;92.94
12907;DHT22;6521;50.498;8.474;2023-02-15T00:25:00;0.99;92.98
12907;DHT22;6521;50.498;8.474;2023-02-15T00:27:33;0.96;92.97
12907;DHT22;6521;50.498;8.474;2023-02-15T00:30:07;0.94;92.91
12907;DHT22;6521;50.498;8.474;2023-02-15T00:32:38;0.86;92.83
12907;DHT22;6521;50.498;8.474;2023-02-15T00:35:09;0.86;92.89
12907;DHT22;6521;50.498;8.474;2023-02-15T00:37:39;0.89;93.07
12907;DHT22;6521;50.498;8.474;2023-02-15T00:40:10;0.87;92.96
12907;DHT22;6521;50.498;8.474;2023-02-15T00:42:41;0.79;92.82
12907;DHT22;6521;50.498;8.474;2023-02-15T00:45:12;0.83;92.98
12907;DHT22;6521;50.498;8.474;2023-02-15T00:47:43;0.89;93.04
12907;DHT22;6521;50.498;8.474;2023-02-15T00:50:14;0.82;93.06
12907;DHT22;6521;50.498;8.474;2023-02-15T00:52:44;0.86;93.17
12907;DHT22;6521;50.498;8.474;2023-02-15T00:55:15;0.86;93.28
12907;DHT22;6521;50.498;8.474;2023-02-15T00:57:46;0.86;93.24
12907;DHT22;6521;50.498;8.474;2023-02-15T01:00:17;0.86;93.24
12907;DHT22;6521;50.498;8.474;2023-02-15T01:02:47;0.83;93.38
12907;DHT22;6521;50.498;8.474;2023-02-15T01:05:18;0.86;93.41
12907;DHT22;6521;50.498;8.474;2023-02-15T01:07:49;0.89;93.43
12907;DHT22;6521;50.498;8.474;2023-02-15T01:10:20;0.90;93.43
12907;DHT22;6521;50.498;8.474;2023-02-15T01:12:52;0.93;93.48
12907;DHT22;6521;50.498;8.474;2023-02-15T01:15:23;0.96;93.50
12907;DHT22;6521;50.498;8.474;2023-02-15T01:17:55;0.94;93.45
12907;DHT22;6521;50.498;8.474;2023-02-15T01:20:27;0.96;93.39
12907;DHT22;6521;50.498;8.474;2023-02-15T01:22:58;0.91;93.41
12907;DHT22;6521;50.498;8.474;2023-02-15T01:25:29;0.93;93.37
12907;DHT22;6521;50.498;8.474;2023-02-15T01:28:00;0.89;93.25
12907;DHT22;6521;50.498;8.474;2023-02-15T01:30:31;0.90;93.42
12907;DHT22;6521;50.498;8.474;2023-02-15T01:33:02;0.87;93.40
12907;DHT22;6521;50.498;8.474;2023-02-15T01:35:36;0.86;93.53
12907;DHT22;6521;50.498;8.474;2023-02-15T01:38:07;0.84;93.47
12907;DHT22;6521;50.498;8.474;2023-02-15T01:40:37;0.84;93.48
12907;DHT22;6521;50.498;8.474;2023-02-15T01:43:11;0.72;93.41
12907;DHT22;6521;50.498;8.474;2023-02-15T01:45:42;0.73;93.53
12907;DHT22;6521;50.498;8.474;2023-02-15T01:48:19;0.70;93.47
12907;DHT22;6521;50.498;8.474;2023-02-15T01:50:56;0.66;93.47
12907;DHT22;6521;50.498;8.474;2023-02-15T01:53:44;0.63;93.52
12907;DHT22;6521;50.498;8.474;2023-02-15T01:56:20;0.62;93.55
12907;DHT22;6521;50.498;8.474;2023-02-15T01:58:55;0.53;93.53
12907;DHT22;6521;50.498;8.474;2023-02-15T02:01:28;0.59;93.59
12907;DHT22;6521;50.498;8.474;2023-02-15T02:06:36;0.56;93.71
12907;DHT22;6521;50.498;8.474;2023-02-15T02:09:07;0.62;93.88
12907;DHT22;6521;50.498;8.474;2023-02-15T02:11:38;0.58;93.73
12907;DHT22;6521;50.498;8.474;2023-02-15T02:14:10;0.55;93.70
12907;DHT22;6521;50.498;8.474;2023-02-15T02:19:54;0.62;93.82
12907;DHT22;6521;50.498;8.474;2023-02-15T02:39:09;0.75;93.87
12907;DHT22;6521;50.498;8.474;2023-02-15T02:42:15;0.80;93.89
12907;DHT22;6521;50.498;8.474;2023-02-15T02:44:52;0.86;93.82
12907;DHT22;6521;50.498;8.474;2023-02-15T02:47:27;0.87;93.82
12907;DHT22;6521;50.498;8.474;2023-02-15T02:50:04;0.90;93.76
12907;DHT22;6521;50.498;8.474;2023-02-15T03:00:41;0.73;93.56
12907;DHT22;6521;50.498;8.474;2023-02-15T03:03:38;0.66;93.69
12907;DHT22;6521;50.498;8.474;2023-02-15T03:06:16;0.72;93.62
12907;DHT22;6521;50.498;8.474;2023-02-15T03:08:53;0.62;93.32
12907;DHT22;6521;50.498;8.474;2023-02-15T03:11:24;0.62;93.53
12907;DHT22;6521;50.498;8.474;2023-02-15T03:13:56;0.62;93.65
12907;DHT22;6521;50.498;8.474;2023-02-15T03:16:28;0.66;93.70
12907;DHT22;6521;50.498;8.474;2023-02-15T03:19:11;0.72;93.72
12907;DHT22;6521;50.498;8.474;2023-02-15T03:21:56;0.73;93.66
12907;DHT22;6521;50.498;8.474;2023-02-15T03:24:51;0.72;93.71
12907;DHT22;6521;50.498;8.474;2023-02-15T03:27:31;0.70;93.65
12907;DHT22;6521;50.498;8.474;2023-02-15T03:30:06;0.66;93.64
12907;DHT22;6521;50.498;8.474;2023-02-15T03:32:40;0.65;93.60
12907;DHT22;6521;50.498;8.474;2023-02-15T03:35:11;0.68;93.70
12907;DHT22;6521;50.498;8.474;2023-02-15T03:37:53;0.65;93.53
12907;DHT22;6521;50.498;8.474;2023-02-15T03:40:31;0.65;93.53
12907;DHT22;6521;50.498;8.474;2023-02-15T03:43:41;0.62;93.45
12907;DHT22;6521;50.498;8.474;2023-02-15T03:52:23;0.33;93.32
12907;DHT22;6521;50.498;8.474;2023-02-15T03:54:55;0.26;93.53
12907;DHT22;6521;50.498;8.474;2023-02-15T03:57:28;0.24;93.59
12907;DHT22;6521;50.498;8.474;2023-02-15T04:05:43;0.15;93.82
12907;DHT22;6521;50.498;8.474;2023-02-15T04:08:14;0.18;93.98
12907;DHT22;6521;50.498;8.474;2023-02-15T04:10:45;0.25;94.05
12907;DHT22;6521;50.498;8.474;2023-02-15T04:13:31;0.37;94.03
12907;DHT22;6521;50.498;8.474;2023-02-15T04:16:02;0.35;93.94
12907;DHT22;6521;50.498;8.474;2023-02-15T04:18:38;0.38;94.00
12907;DHT22;6521;50.498;8.474;2023-02-15T04:21:30;0.42;93.98
12907;DHT22;6521;50.498;8.474;2023-02-15T04:24:19;0.45;93.94
12907;DHT22;6521;50.498;8.474;2023-02-15T04:27:09;0.48;93.89
12907;DHT22;6521;50.498;8.474;2023-02-15T04:29:40;0.48;93.87
12907;DHT22;6521;50.498;8.474;2023-02-15T04:32:10;0.52;93.94
12907;DHT22;6521;50.498;8.474;2023-02-15T04:34:41;0.53;93.81
12907;DHT22;6521;50.498;8.474;2023-02-15T04:37:12;0.51;93.70
12907;DHT22;6521;50.498;8.474;2023-02-15T04:39:42;0.45;93.67
12907;DHT22;6521;50.498;8.474;2023-02-15T04:42:13;0.39;93.52
12907;DHT22;6521;50.498;8.474;2023-02-15T04:44:44;0.42;93.74
12907;DHT22;6521;50.498;8.474;2023-02-15T04:47:15;0.46;93.68
12907;DHT22;6521;50.498;8.474;2023-02-15T04:49:45;0.46;93.64
12907;DHT22;6521;50.498;8.474;2023-02-15T04:52:16;0.49;93.68
12907;DHT22;6521;50.498;8.474;2023-02-15T04:54:50;0.45;93.56
12907;DHT22;6521;50.498;8.474;2023-02-15T04:57:20;0.48;93.50
12907;DHT22;6521;50.498;8.474;2023-02-15T04:59:51;0.51;93.34
12907;DHT22;6521;50.498;8.474;2023-02-15T05:02:22;0.39;92.87
12907;DHT22;6521;50.498;8.474;2023-02-15T05:04:53;0.22;92.86
12907;DHT22;6521;50.498;8.474;2023-02-15T05:07:23;0.17;93.22
12907;DHT22;6521;50.498;8.474;2023-02-15T05:09:54;0.15;93.22
12907;DHT22;6521;50.498;8.474;2023-02-15T05:12:25;0.11;93.32
12907;DHT22;6521;50.498;8.474;2023-02-15T05:14:55;0.12;93.39
12907;DHT22;6521;50.498;8.474;2023-02-15T05:17:26;0.11;93.63
12907;DHT22;6521;50.498;8.474;2023-02-15T05:19:57;0.12;93.93
12907;DHT22;6521;50.498;8.474;2023-02-15T05:22:27;0.21;93.89
12907;DHT22;6521;50.498;8.474;2023-02-15T05:24:58;0.26;93.93
12907;DHT22;6521;50.498;8.474;2023-02-15T05:27:48;0.32;93.97
12907;DHT22;6521;50.498;8.474;2023-02-15T05:30:37;0.33;93.85
12907;DHT22;6521;50.498;8.474;2023-02-15T05:33:10;0.38;93.84
12907;DHT22;6521;50.498;8.474;2023-02-15T05:35:40;0.29;93.38
12907;DHT22;6521;50.498;8.474;2023-02-15T05:38:11;0.29;93.53
12907;DHT22;6521;50.498;8.474;2023-02-15T05:40:42;0.33;93.95
12907;DHT22;6521;50.498;8.474;2023-02-15T05:43:13;0.31;93.87
12907;DHT22;6521;50.498;8.474;2023-02-15T05:45:45;0.25;93.52
12907;DHT22;6521;50.498;8.474;2023-02-15T05:48:17;0.18;93.43
12907;DHT22;6521;50.498;8.474;2023-02-15T05:51:04;0.15;93.39
12907;DHT22;6521;50.498;8.474;2023-02-15T05:53:37;0.14;93.33
12907;DHT22;6521;50.498;8.474;2023-02-15T05:56:10;0.11;93.35
12907;DHT22;6521;50.498;8.474;2023-02-15T05:58:41;0.04;93.35
12907;DHT22;6521;50.498;8.474;2023-02-15T06:01:17;0.02;93.59
12907;DHT22;6521;50.498;8.474;2023-02-15T06:03:48;0.01;93.50
12907;DHT22;6521;50.498;8.474;2023-02-15T06:06:19;-0.05;93.45
12907;DHT22;6521;50.498;8.474;2023-02-15T06:08:50;-0.07;93.51
12907;DHT22;6521;50.498;8.474;2023-02-15T06:11:21;-0.06;93.61
12907;DHT22;6521;50.498;8.474;2023-02-15T06:13:51;-0.06;93.64
12907;DHT22;6521;50.498;8.474;2023-02-15T06:16:22;0.01;93.84
12907;DHT22;6521;50.498;8.474;2023-02-15T06:18:53;0.07;93.87
12907;DHT22;6521;50.498;8.474;2023-02-15T06:21:24;0.12;93.91
12907;DHT22;6521;50.498;8.474;2023-02-15T06:23:54;0.11;93.70
12907;DHT22;6521;50.498;8.474;2023-02-15T06:26:25;0.12;93.75
12907;DHT22;6521;50.498;8.474;2023-02-15T06:28:56;0.12;93.70
12907;DHT22;6521;50.498;8.474;2023-02-15T06:31:27;0.12;93.71
12907;DHT22;6521;50.498;8.474;2023-02-15T06:33:57;0.19;93.76
12907;DHT22;6521;50.498;8.474;2023-02-15T06:36:31;0.21;93.64
12907;DHT22;6521;50.498;8.474;2023-02-15T06:39:03;0.28;93.64
12907;DHT22;6521;50.498;8.474;2023-02-15T06:41:34;0.29;93.53
12907;DHT22;6521;50.498;8.474;2023-02-15T06:44:05;0.19;93.03
12907;DHT22;6521;50.498;8.474;2023-02-15T06:46:36;0.24;93.36
12907;DHT22;6521;50.498;8.474;2023-02-15T06:49:09;0.26;93.49
12907;DHT22;6521;50.498;8.474;2023-02-15T06:51:40;0.31;93.37
12907;DHT22;6521;50.498;8.474;2023-02-15T06:54:13;0.31;93.35
12907;DHT22;6521;50.498;8.474;2023-02-15T06:56:43;0.31;93.39
12907;DHT22;6521;50.498;8.474;2023-02-15T06:59:16;0.35;93.43
12907;DHT22;6521;50.498;8.474;2023-02-15T07:01:47;0.38;93.36
12907;DHT22;6521;50.498;8.474;2023-02-15T07:04:19;0.42;93.34
12907;DHT22;6521;50.498;8.474;2023-02-15T07:06:50;0.38;93.10
12907;DHT22;6521;50.498;8.474;2023-02-15T07:09:21;0.39;93.20
12907;DHT22;6521;50.498;8.474;2023-02-15T07:11:52;0.45;93.32
12907;DHT22;6521;50.498;8.474;2023-02-15T07:14:42;0.48;93.33
12907;DHT22;6521;50.498;8.474;2023-02-15T07:17:13;0.51;93.33
12907;DHT22;6521;50.498;8.474;2023-02-15T07:19:44;0.49;93.20
12907;DHT22;6521;50.498;8.474;2023-02-15T07:22:14;0.42;93.01
12907;DHT22;6521;50.498;8.474;2023-02-15T07:24:45;0.37;92.94
12907;DHT22;6521;50.498;8.474;2023-02-15T07:27:20;0.33;92.72
12907;DHT22;6521;50.498;8.474;2023-02-15T07:29:50;0.26;92.71
12907;DHT22;6521;50.498;8.474;2023-02-15T07:32:21;0.19;92.98
12907;DHT22;6521;50.498;8.474;2023-02-15T07:34:52;0.21;93.10
12907;DHT22;6521;50.498;8.474;2023-02-15T07:37:23;0.25;93.38
12907;DHT22;6521;50.498;8.474;2023-02-15T07:39:54;0.38;93.60
12907;DHT22;6521;50.498;8.474;2023-02-15T07:42:25;0.46;93.63
12907;DHT22;6521;50.498;8.474;2023-02-15T07:44:56;0.49;93.51
12907;DHT22;6521;50.498;8.474;2023-02-15T07:47:26;0.56;93.53
12907;DHT22;6521;50.498;8.474;2023-02-15T07:49:57;0.60;93.64
12907;DHT22;6521;50.498;8.474;2023-02-15T07:52:28;0.66;93.60
12907;DHT22;6521;50.498;8.474;2023-02-15T07:54:59;0.69;93.46
12907;DHT22;6521;50.498;8.474;2023-02-15T07:57:29;0.72;93.37
12907;DHT22;6521;50.498;8.474;2023-02-15T08:00:02;0.73;93.27
12907;DHT22;6521;50.498;8.474;2023-02-15T08:02:50;0.68;92.95
12907;DHT22;6521;50.498;8.474;2023-02-15T08:05:45;0.70;92.97
12907;DHT22;6521;50.498;8.474;2023-02-15T08:08:15;0.72;92.93
12907;DHT22;6521;50.498;8.474;2023-02-15T08:11:03;0.69;92.85
12907;DHT22;6521;50.498;8.474;2023-02-15T08:14:10;0.69;92.89
12907;DHT22;6521;50.498;8.474;2023-02-15T08:16:43;0.69;93.02
12907;DHT22;6521;50.498;8.474;2023-02-15T08:19:20;0.73;93.01
12907;DHT22;6521;50.498;8.474;2023-02-15T08:21:54;0.76;93.12
12907;DHT22;6521;50.498;8.474;2023-02-15T08:24:27;0.82;93.17
12907;DHT22;6521;50.498;8.474;2023-02-15T08:26:58;0.84;93.16
12907;DHT22;6521;50.498;8.474;2023-02-15T08:29:30;0.86;93.01
12907;DHT22;6521;50.498;8.474;2023-02-15T08:32:05;0.82;92.95
12907;DHT22;6521;50.498;8.474;2023-02-15T08:34:40;0.84;93.13
12907;DHT22;6521;50.498;8.474;2023-02-15T08:37:11;0.90;93.18
12907;DHT22;6521;50.498;8.474;2023-02-15T08:39:42;0.87;92.93
12907;DHT22;6521;50.498;8.474;2023-02-15T08:42:13;0.89;92.74
12907;DHT22;6521;50.498;8.474;2023-02-15T08:44:44;0.83;92.49
12907;DHT22;6521;50.498;8.474;2023-02-15T08:47:15;0.82;92.64
12907;DHT22;6521;50.498;8.474;2023-02-15T08:49:46;0.83;92.83
12907;DHT22;6521;50.498;8.474;2023-02-15T08:52:17;0.89;92.77
12907;DHT22;6521;50.498;8.474;2023-02-15T08:54:48;0.93;92.91
12907;DHT22;6521;50.498;8.474;2023-02-15T08:57:19;1.03;93.02
12907;DHT22;6521;50.498;8.474;2023-02-15T08:59:49;1.11;93.14
12907;DHT22;6521;50.498;8.474;2023-02-15T09:02:21;1.17;93.12
12907;DHT22;6521;50.498;8.474;2023-02-15T09:04:52;1.26;93.04
12907;DHT22;6521;50.498;8.474;2023-02-15T09:07:23;1.23;92.83
12907;DHT22;6521;50.498;8.474;2023-02-15T09:09:54;1.31;92.80
12907;DHT22;6521;50.498;8.474;2023-02-15T09:12:25;1.40;92.71
12907;DHT22;6521;50.498;8.474;2023-02-15T09:14:55;1.40;92.62
12907;DHT22;6521;50.498;8.474;2023-02-15T09:17:26;1.45;92.73
12907;DHT22;6521;50.498;8.474;2023-02-15T09:19:57;1.51;92.60
12907;DHT22;6521;50.498;8.474;2023-02-15T09:22:27;1.52;92.52
12907;DHT22;6521;50.498;8.474;2023-02-15T09:25:00;1.54;92.40
12907;DHT22;6521;50.498;8.474;2023-02-15T09:27:31;1.55;92.40
12907;DHT22;6521;50.498;8.474;2023-02-15T09:30:03;1.59;92.45
12907;DHT22;6521;50.498;8.474;2023-02-15T09:32:34;1.63;92.43
12907;DHT22;6521;50.498;8.474;2023-02-15T09:35:05;1.68;92.23
12907;DHT22;6521;50.498;8.474;2023-02-15T09:37:36;1.78;92.26
12907;DHT22;6521;50.498;8.474;2023-02-15T09:40:07;1.83;92.24
12907;DHT22;6521;50.498;8.474;2023-02-15T09:45:26;1.83;91.83
12907;DHT22;6521;50.498;8.474;2023-02-15T09:48:18;1.80;91.82
12907;DHT22;6521;50.498;8.474;2023-02-15T09:56:38;1.75;91.66
12907;DHT22;6521;50.498;8.474;2023-02-15T09:59:28;1.73;91.25
12907;DHT22;6521;50.498;8.474;2023-02-15T10:02:37;1.75;91.40
12907;DHT22;6521;50.498;8.474;2023-02-15T10:13:23;1.96;92.04
12907;DHT22;6521;50.498;8.474;2023-02-15T10:19:03;2.07;90.87
12907;DHT22;6521;50.498;8.474;2023-02-15T10:27:19;2.14;91.03
12907;DHT22;6521;50.498;8.474;2023-02-15T10:29:57;2.26;90.90
12907;DHT22;6521;50.498;8.474;2023-02-15T10:32:39;2.30;90.70
12907;DHT22;6521;50.498;8.474;2023-02-15T10:35:24;2.33;90.67
12907;DHT22;6521;50.498;8.474;2023-02-15T10:41:35;2.48;90.61
12907;DHT22;6521;50.498;8.474;2023-02-15T10:55:58;2.78;90.37
12907;DHT22;6521;50.498;8.474;2023-02-15T11:07:58;2.88;89.27
12907;DHT22;6521;50.498;8.474;2023-02-15T11:10:38;3.02;89.36
12907;DHT22;6521;50.498;8.474;2023-02-15T11:13:15;3.05;88.99
12907;DHT22;6521;50.498;8.474;2023-02-15T11:15:49;3.08;88.94
12907;DHT22;6521;50.498;8.474;2023-02-15T11:18:43;3.09;88.87
12907;DHT22;6521;50.498;8.474;2023-02-15T11:23:55;3.20;88.69
12907;DHT22;6521;50.498;8.474;2023-02-15T11:26:44;3.31;88.72
12907;DHT22;6521;50.498;8.474;2023-02-15T11:29:28;3.41;88.44
12907;DHT22;6521;50.498;8.474;2023-02-15T11:32:04;3.40;88.51
12907;DHT22;6521;50.498;8.474;2023-02-15T11:34:51;3.40;87.80
12907;DHT22;6521;50.498;8.474;2023-02-15T11:37:34;3.53;88.20
12907;DHT22;6521;50.498;8.474;2023-02-15T11:40:27;3.56;88.07
12907;DHT22;6521;50.498;8.474;2023-02-15T11:43:03;3.58;87.98
12907;DHT22;6521;50.498;8.474;2023-02-15T11:45:35;3.64;88.00
12907;DHT22;6521;50.498;8.474;2023-02-15T11:48:12;3.64;87.70
12907;DHT22;6521;50.498;8.474;2023-02-15T11:50:46;3.60;87.10
12907;DHT22;6521;50.498;8.474;2023-02-15T11:53:21;3.57;87.20
12907;DHT22;6521;50.498;8.474;2023-02-15T11:55:55;3.58;87.35
12907;DHT22;6521;50.498;8.474;2023-02-15T11:59:01;3.63;87.81
12907;DHT22;6521;50.498;8.474;2023-02-15T12:01:33;3.71;87.54
12907;DHT22;6521;50.498;8.474;2023-02-15T12:04:15;3.75;86.60
12907;DHT22;6521;50.498;8.474;2023-02-15T12:06:57;3.77;86.64
12907;DHT22;6521;50.498;8.474;2023-02-15T12:10:03;3.85;86.53
12907;DHT22;6521;50.498;8.474;2023-02-15T12:12:42;3.95;85.27
12907;DHT22;6521;50.498;8.474;2023-02-15T12:15:13;3.99;86.32
12907;DHT22;6521;50.498;8.474;2023-02-15T12:17:50;4.16;86.61
12907;DHT22;6521;50.498;8.474;2023-02-15T12:20:29;4.29;85.78
12907;DHT22;6521;50.498;8.474;2023-02-15T12:23:08;4.45;85.42
12907;DHT22;6521;50.498;8.474;2023-02-15T12:25:49;4.43;84.67
12907;DHT22;6521;50.498;8.474;2023-02-15T12:28:33;4.60;85.11
12907;DHT22;6521;50.498;8.474;2023-02-15T12:31:18;4.63;84.62
12907;DHT22;6521;50.498;8.474;2023-02-15T12:33:55;4.54;83.94
12907;DHT22;6521;50.498;8.474;2023-02-15T12:36:38;4.60;84.50
12907;DHT22;6521;50.498;8.474;2023-02-15T12:41:57;4.58;85.13
12907;DHT22;6521;50.498;8.474;2023-02-15T12:44:34;4.66;84.54
12907;DHT22;6521;50.498;8.474;2023-02-15T12:50:29;4.83;84.08
12907;DHT22;6521;50.498;8.474;2023-02-15T12:53:13;4.97;84.38
12907;DHT22;6521;50.498;8.474;2023-02-15T12:55:56;5.02;83.79
12907;DHT22;6521;50.498;8.474;2023-02-15T12:58:32;5.09;83.80
12907;DHT22;6521;50.498;8.474;2023-02-15T13:01:21;5.25;83.72
12907;DHT22;6521;50.498;8.474;2023-02-15T13:04:06;5.39;83.69
12907;DHT22;6521;50.498;8.474;2023-02-15T13:06:49;5.40;83.11
12907;DHT22;6521;50.498;8.474;2023-02-15T13:09:35;5.35;83.27
12907;DHT22;6521;50.498;8.474;2023-02-15T13:12:21;5.26;83.25
12907;DHT22;6521;50.498;8.474;2023-02-15T13:14:54;5.14;82.98
12907;DHT22;6521;50.498;8.474;2023-02-15T13:17:30;5.05;83.19
12907;DHT22;6521;50.498;8.474;2023-02-15T13:20:16;4.97;83.36
12907;DHT22;6521;50.498;8.474;2023-02-15T13:22:49;4.91;83.54
12907;DHT22;6521;50.498;8.474;2023-02-15T13:25:23;4.81;83.50
12907;DHT22;6521;50.498;8.474;2023-02-15T13:28:01;4.68;84.32
12907;DHT22;6521;50.498;8.474;2023-02-15T13:30:38;4.71;84.69
12907;DHT22;6521;50.498;8.474;2023-02-15T13:33:44;4.70;84.62
12907;DHT22;6521;50.498;8.474;2023-02-15T13:36:29;4.58;84.53
12907;DHT22;6521;50.498;8.474;2023-02-15T13:39:15;4.49;84.42
12907;DHT22;6521;50.498;8.474;2023-02-15T13:47:53;4.23;85.36
12907;DHT22;6521;50.498;8.474;2023-02-15T13:56:01;4.09;85.41
12907;DHT22;6521;50.498;8.474;2023-02-15T14:01:53;4.09;85.77
12907;DHT22;6521;50.498;8.474;2023-02-15T14:04:32;4.02;85.70
12907;DHT22;6521;50.498;8.474;2023-02-15T14:07:20;3.91;85.84
12907;DHT22;6521;50.498;8.474;2023-02-15T14:10:34;3.87;86.10
12907;DHT22;6521;50.498;8.474;2023-02-15T14:27:27;3.50;87.17
12907;DHT22;6521;50.498;8.474;2023-02-15T14:30:20;3.43;87.17
12907;DHT22;6521;50.498;8.474;2023-02-15T14:35:35;3.27;87.59
12907;DHT22;6521;50.498;8.474;2023-02-15T14:44:37;3.09;88.19
12907;DHT22;6521;50.498;8.474;2023-02-15T14:47:24;3.10;88.50
12907;DHT22;6521;50.498;8.474;2023-02-15T14:49:57;3.12;88.54
12907;DHT22;6521;50.498;8.474;2023-02-15T14:52:28;3.10;88.63
12907;DHT22;6521;50.498;8.474;2023-02-15T14:54:59;3.12;88.63
12907;DHT22;6521;50.498;8.474;2023-02-15T14:57:32;3.09;88.62
12907;DHT22;6521;50.498;8.474;2023-02-15T15:00:31;3.06;88.60
12907;DHT22;6521;50.498;8.474;2023-02-15T15:03:12;3.05;88.79
12907;DHT22;6521;50.498;8.474;2023-02-15T15:05:53;3.02;88.81
12907;DHT22;6521;50.498;8.474;2023-02-15T15:08:34;3.03;88.90
12907;DHT22;6521;50.498;8.474;2023-02-15T15:11:37;3.05;88.93
12907;DHT22;6521;50.498;8.474;2023-02-15T15:14:08;3.03;88.92
12907;DHT22;6521;50.498;8.474;2023-02-15T15:16:50;2.98;89.02
12907;DHT22;6521;50.498;8.474;2023-02-15T15:22:25;2.98;89.21
12907;DHT22;6521;50.498;8.474;2023-02-15T15:27:52;2.93;89.07
12907;DHT22;6521;50.498;8.474;2023-02-15T15:41:19;2.75;89.54
12907;DHT22;6521;50.498;8.474;2023-02-15T15:49:37;2.61;89.71
12907;DHT22;6521;50.498;8.474;2023-02-15T15:52:20;2.62;89.70
12907;DHT22;6521;50.498;8.474;2023-02-15T15:54:56;2.62;89.78
12907;DHT22;6521;50.498;8.474;2023-02-15T15:57:31;2.61;89.92
12907;DHT22;6521;50.498;8.474;2023-02-15T16:03:14;2.64;89.95
12907;DHT22;6521;50.498;8.474;2023-02-15T16:05:46;2.66;89.93
12907;DHT22;6521;50.498;8.474;2023-02-15T16:08:35;2.64;89.90
12907;DHT22;6521;50.498;8.474;2023-02-15T16:11:27;2.64;89.81
12907;DHT22;6521;50.498;8.474;2023-02-15T16:13:59;2.58;89.85
12907;DHT22;6521;50.498;8.474;2023-02-15T16:16:30;2.57;90.07
12907;DHT22;6521;50.498;8.474;2023-02-15T16:19:02;2.57;90.08
12907;DHT22;6521;50.498;8.474;2023-02-15T16:21:35;2.55;90.10
12907;DHT22;6521;50.498;8.474;2023-02-15T16:24:14;2.54;90.11
12907;DHT22;6521;50.498;8.474;2023-02-15T16:29:41;2.50;90.13
12907;DHT22;6521;50.498;8.474;2023-02-15T16:32:21;2.45;90.15
12907;DHT22;6521;50.498;8.474;2023-02-15T16:35:01;2.48;90.21
12907;DHT22;6521;50.498;8.474;2023-02-15T16:37:33;2.42;90.20
12907;DHT22;6521;50.498;8.474;2023-02-15T16:40:05;2.41;90.32
12907;DHT22;6521;50.498;8.474;2023-02-15T16:42:37;2.40;90.22
12907;DHT22;6521;50.498;8.474;2023-02-15T16:45:12;2.38;90.33
12907;DHT22;6521;50.498;8.474;2023-02-15T16:47:46;2.38;90.44
12907;DHT22;6521;50.498;8.474;2023-02-15T16:50:20;2.33;90.36
12907;DHT22;6521;50.498;8.474;2023-02-15T16:52:52;2.30;90.45
12907;DHT22;6521;50.498;8.474;2023-02-15T16:55:26;2.28;90.54
12907;DHT22;6521;50.498;8.474;2023-02-15T16:58:01;2.28;90.50
12907;DHT22;6521;50.498;8.474;2023-02-15T17:00:38;2.28;90.53
12907;DHT22;6521;50.498;8.474;2023-02-15T17:05:50;2.28;90.55
12907;DHT22;6521;50.498;8.474;2023-02-15T17:08:42;2.27;90.63
12907;DHT22;6521;50.498;8.474;2023-02-15T17:11:17;2.27;90.68
12907;DHT22;6521;50.498;8.474;2023-02-15T17:19:47;2.19;90.74
12907;DHT22;6521;50.498;8.474;2023-02-15T17:22:25;2.19;90.90
12907;DHT22;6521;50.498;8.474;2023-02-15T17:24:59;2.20;90.95
12907;DHT22;6521;50.498;8.474;2023-02-15T17:27:31;2.20;90.96
12907;DHT22;6521;50.498;8.474;2023-02-15T17:30:13;2.19;90.98
12907;DHT22;6521;50.498;8.474;2023-02-15T17:32:56;2.20;90.98
12907;DHT22;6521;50.498;8.474;2023-02-15T17:35:29;2.16;91.07
12907;DHT22;6521;50.498;8.474;2023-02-15T17:38:17;2.20;91.04
12907;DHT22;6521;50.498;8.474;2023-02-15T17:40:49;2.19;90.98
12907;DHT22;6521;50.498;8.474;2023-02-15T17:43:19;2.21;91.11
12907;DHT22;6521;50.498;8.474;2023-02-15T17:45:51;2.19;91.26
12907;DHT22;6521;50.498;8.474;2023-02-15T17:48:36;2.16;91.24
12907;DHT22;6521;50.498;8.474;2023-02-15T17:51:12;2.17;91.32
12907;DHT22;6521;50.498;8.474;2023-02-15T17:53:43;2.16;91.38
12907;DHT22;6521;50.498;8.474;2023-02-15T17:56:36;2.13;91.43
12907;DHT22;6521;50.498;8.474;2023-02-15T17:59:07;2.11;91.56
12907;DHT22;6521;50.498;8.474;2023-02-15T18:01:45;2.10;91.59
12907;DHT22;6521;50.498;8.474;2023-02-15T18:04:36;2.06;91.70
12907;DHT22;6521;50.498;8.474;2023-02-15T18:07:30;2.03;91.84
12907;DHT22;6521;50.498;8.474;2023-02-15T18:10:20;2.00;91.91
12907;DHT22;6521;50.498;8.474;2023-02-15T18:13:09;2.03;91.96
12907;DHT22;6521;50.498;8.474;2023-02-15T18:15:39;2.02;92.04
12907;DHT22;6521;50.498;8.474;2023-02-15T18:18:11;2.02;92.00
12907;DHT22;6521;50.498;8.474;2023-02-15T18:20:42;2.03;92.11
12907;DHT22;6521;50.498;8.474;2023-02-15T18:23:14;2.03;92.06
12907;DHT22;6521;50.498;8.474;2023-02-15T18:25:45;1.99;92.12
12907;DHT22;6521;50.498;8.474;2023-02-15T18:28:16;2.00;92.10
12907;DHT22;6521;50.498;8.474;2023-02-15T18:30:47;2.05;92.11
12907;DHT22;6521;50.498;8.474;2023-02-15T18:33:35;2.03;92.17
12907;DHT22;6521;50.498;8.474;2023-02-15T18:36:12;2.03;92.24
12907;DHT22;6521;50.498;8.474;2023-02-15T18:38:44;2.02;92.26
12907;DHT22;6521;50.498;8.474;2023-02-15T18:41:16;2.05;92.26
12907;DHT22;6521;50.498;8.474;2023-02-15T18:43:49;2.07;92.19
12907;DHT22;6521;50.498;8.474;2023-02-15T18:46:20;2.02;92.22
12907;DHT22;6521;50.498;8.474;2023-02-15T18:48:51;1.96;92.29
12907;DHT22;6521;50.498;8.474;2023-02-15T18:51:22;1.98;92.34
12907;DHT22;6521;50.498;8.474;2023-02-15T18:53:53;1.99;92.33
12907;DHT22;6521;50.498;8.474;2023-02-15T18:56:24;1.99;92.36
12907;DHT22;6521;50.498;8.474;2023-02-15T18:58:55;1.95;92.39
12907;DHT22;6521;50.498;8.474;2023-02-15T19:01:26;1.92;92.40
12907;DHT22;6521;50.498;8.474;2023-02-15T19:03:57;1.90;92.42
12907;DHT22;6521;50.498;8.474;2023-02-15T19:06:28;1.85;92.55
12907;DHT22;6521;50.498;8.474;2023-02-15T19:08:59;1.85;92.61
12907;DHT22;6521;50.498;8.474;2023-02-15T19:11:30;1.85;92.65
12907;DHT22;6521;50.498;8.474;2023-02-15T19:14:00;1.86;92.66
12907;DHT22;6521;50.498;8.474;2023-02-15T19:16:33;1.86;92.67
12907;DHT22;6521;50.498;8.474;2023-02-15T19:19:04;1.87;92.67
12907;DHT22;6521;50.498;8.474;2023-02-15T19:21:35;1.89;92.58
12907;DHT22;6521;50.498;8.474;2023-02-15T19:24:12;1.85;92.51
12907;DHT22;6521;50.498;8.474;2023-02-15T19:26:44;1.83;92.48
12907;DHT22;6521;50.498;8.474;2023-02-15T19:29:20;1.86;92.33
12907;DHT22;6521;50.498;8.474;2023-02-15T19:31:52;1.90;92.27
12907;DHT22;6521;50.498;8.474;2023-02-15T19:34:23;1.85;92.12
12907;DHT22;6521;50.498;8.474;2023-02-15T19:36:54;1.85;92.24
12907;DHT22;6521;50.498;8.474;2023-02-15T19:39:34;1.85;92.35
12907;DHT22;6521;50.498;8.474;2023-02-15T19:42:13;1.75;92.30
12907;DHT22;6521;50.498;8.474;2023-02-15T19:44:45;1.75;92.44
12907;DHT22;6521;50.498;8.474;2023-02-15T19:47:16;1.76;92.47
12907;DHT22;6521;50.498;8.474;2023-02-15T19:49:47;1.79;92.64
12907;DHT22;6521;50.498;8.474;2023-02-15T19:52:20;1.79;92.54
12907;DHT22;6521;50.498;8.474;2023-02-15T19:54:53;1.80;92.59